KJST/JST METAR and TAF weather

Enter ICAO airport designator
Station Type Date Time Source
KJST METAR 2019/07/20 19:54 UTC NOAA

KJST 201954Z AUTO 27007KT 10SM FEW035 30/21 A2999 RMK AO2 SLP134 T03000206


Station Type Date Time Source
KJST Decoded METAR 2019/07/20 19:54 UTC NOAA

JOHNSTOWN-CAMBRIA CO AIRPORT , PA, United States (KJST) 40-19N 078-50W 694M
Jul 20, 2019 - 03:54 PM EDT / 2019.07.20 1954 UTC
Wind: from the W (270 degrees) at 8 MPH (7 KT):0
Visibility: 10 mile(s):0
Sky conditions: mostly clear
Temperature: 86.0 F (30.0 C)
Dew Point: 69.1 F (20.6 C)
Relative Humidity: 57%
Pressure (altimeter): 29.99 in. Hg (1015 hPa)
ob: KJST 201954Z AUTO 27007KT 10SM FEW035 30/21 A2999 RMK AO2 SLP134 T03000206
cycle: 20

Station Type Date Time Source
KJST TAF 2019/07/20 18:57 UTC NOAA

TAF KJST 201754Z 2018/2118 25010KT P6SM SCT050
FM210000 26005KT P6SM BKN200
FM210600 27010KT P6SM SCT050 BKN100

Example: see airport list